Flugplatz Brandenburg-Mühlenfeld

Für EDBE sind keine METAR/TAF Berichte vorhanden.
Es werden die Flugwettermeldungen vom Flugplatz Berlin-Tegel International in 48 km Entfernung angezeigt.

Bericht für EDDT

vom 07.08. um 17:50 UTC

Wind 3 kt aus 120°

Sichtweite 10 km oder mehr

gute Sicht, keine Wolken < 5000 ft, keine CB, keine Wettererscheinungen (CAVOK)

Temperatur 30.0°C

Taupunkt 16.0°C

Luftfeuchtigkeit 43%

Luftdruck 1020 hPa

keine wesentliche Wetteränderung innerhalb den nächsten 2 Stunden zu erwarten

EDDT 071750Z 12003KT CAVOK 30/16 Q1020 NOSIG

Prognose für EDDT

vom 07.08. um 17:00 UTC

Zwischen 18:00 UTC und 06:00 UTC

Wind 4 kt aus 70°

Sichtweite 10 km oder mehr

keine signifikanten Wettererscheinungen

keine Wolken


Am 08.08. zwischen 06:00 und 08:00 UTC übergehend zu

Wind 5 kt aus 130°

Sichtweite 10 km oder mehr

keine signifikanten Wettererscheinungen

keine Wolken


Am 08.08. zwischen 13:00 und 15:00 UTC übergehend zu

Wind 5 kt aus 360°

Sichtweite 10 km oder mehr

keine signifikanten Wettererscheinungen

keine Wolken

TAF EDDT 071700Z 0718/0818 07004KT CAVOK BECMG 0806/0808 13005KT BECMG 0813/0815 36005KT
Impressum